Pajares, Spain
Current Conditions -  °F | °C
As of 8:30 PM on Saturday 27 Dec 2014 (Local Time) from LEAS Reporting Station
Broken Clouds Broken Clouds  
Wind Chill: 55°   Ceiling: 3000
Heat Index: 55°   Visibility: 4mi
Dew Point: 52°   Wind: 24mph
Humidity: 88%   Direction: 290°WNW
Pressure: 30.15"   Gusts: 37mph
Location:  43.57°N, 5.69°W
Report Text: LEAS 271930Z 29021G32KT 6000 SCT012 BKN030 13/11 Q1021 RERA NOSIG
Loading
Personal Weather Stations






























Interactive Weather Map New forecast layout! Learn more

10-Day Weather Forecast

Advertisements
Track Severe Weather on mobile